sensor_id;sensor_type;location;lat;lon;timestamp;P1;durP1;ratioP1;P2;durP2;ratioP2
82372;SDS011;72000;42.828;23.382;2023-11-19T00:02:23;2.22;;;1.00;;
82372;SDS011;72000;42.828;23.382;2023-11-19T00:04:49;1.67;;;0.90;;
82372;SDS011;72000;42.828;23.382;2023-11-19T00:07:14;1.30;;;0.80;;
82372;SDS011;72000;42.828;23.382;2023-11-19T00:09:40;2.33;;;1.00;;
82372;SDS011;72000;42.828;23.382;2023-11-19T00:12:06;1.63;;;0.88;;
82372;SDS011;72000;42.828;23.382;2023-11-19T00:14:35;2.08;;;0.80;;
82372;SDS011;72000;42.828;23.382;2023-11-19T00:17:01;2.42;;;0.82;;
82372;SDS011;72000;42.828;23.382;2023-11-19T00:19:26;1.75;;;0.85;;
82372;SDS011;72000;42.828;23.382;2023-11-19T00:21:52;2.72;;;1.23;;
82372;SDS011;72000;42.828;23.382;2023-11-19T00:24:17;2.72;;;1.23;;
82372;SDS011;72000;42.828;23.382;2023-11-19T00:26:43;2.67;;;1.10;;
82372;SDS011;72000;42.828;23.382;2023-11-19T00:29:09;3.38;;;1.60;;
82372;SDS011;72000;42.828;23.382;2023-11-19T00:31:35;3.30;;;1.35;;
82372;SDS011;72000;42.828;23.382;2023-11-19T00:34:01;3.30;;;1.40;;
82372;SDS011;72000;42.828;23.382;2023-11-19T00:36:27;2.95;;;1.50;;
82372;SDS011;72000;42.828;23.382;2023-11-19T00:38:54;4.00;;;1.60;;
82372;SDS011;72000;42.828;23.382;2023-11-19T00:41:20;3.33;;;1.23;;
82372;SDS011;72000;42.828;23.382;2023-11-19T00:43:46;4.15;;;1.52;;
82372;SDS011;72000;42.828;23.382;2023-11-19T00:46:12;3.55;;;1.60;;
82372;SDS011;72000;42.828;23.382;2023-11-19T00:48:38;3.35;;;1.60;;
82372;SDS011;72000;42.828;23.382;2023-11-19T00:51:04;3.65;;;1.60;;
82372;SDS011;72000;42.828;23.382;2023-11-19T00:53:30;3.67;;;1.60;;
82372;SDS011;72000;42.828;23.382;2023-11-19T00:58:22;3.70;;;1.80;;
82372;SDS011;72000;42.828;23.382;2023-11-19T01:00:48;4.63;;;1.73;;
82372;SDS011;72000;42.828;23.382;2023-11-19T01:03:13;4.22;;;1.70;;
82372;SDS011;72000;42.828;23.382;2023-11-19T01:08:09;5.05;;;2.10;;
82372;SDS011;72000;42.828;23.382;2023-11-19T01:10:38;3.22;;;1.45;;
82372;SDS011;72000;42.828;23.382;2023-11-19T01:13:04;3.92;;;2.00;;
82372;SDS011;72000;42.828;23.382;2023-11-19T01:15:33;4.00;;;1.90;;
82372;SDS011;72000;42.828;23.382;2023-11-19T01:17:59;4.55;;;1.90;;
82372;SDS011;72000;42.828;23.382;2023-11-19T01:20:27;4.65;;;1.90;;
82372;SDS011;72000;42.828;23.382;2023-11-19T01:22:52;4.00;;;1.90;;
82372;SDS011;72000;42.828;23.382;2023-11-19T01:25:18;3.72;;;1.80;;
82372;SDS011;72000;42.828;23.382;2023-11-19T01:27:44;5.35;;;2.10;;
82372;SDS011;72000;42.828;23.382;2023-11-19T01:30:09;4.20;;;1.92;;
82372;SDS011;72000;42.828;23.382;2023-11-19T01:32:38;3.33;;;1.65;;
82372;SDS011;72000;42.828;23.382;2023-11-19T01:35:05;4.78;;;2.10;;
82372;SDS011;72000;42.828;23.382;2023-11-19T01:37:31;4.50;;;1.90;;
82372;SDS011;72000;42.828;23.382;2023-11-19T01:39:57;4.47;;;2.13;;
82372;SDS011;72000;42.828;23.382;2023-11-19T01:42:23;4.00;;;2.08;;
82372;SDS011;72000;42.828;23.382;2023-11-19T01:44:59;4.78;;;2.00;;
82372;SDS011;72000;42.828;23.382;2023-11-19T01:47:29;4.57;;;1.98;;
82372;SDS011;72000;42.828;23.382;2023-11-19T01:49:55;4.53;;;2.00;;
82372;SDS011;72000;42.828;23.382;2023-11-19T01:52:22;4.10;;;1.90;;
82372;SDS011;72000;42.828;23.382;2023-11-19T01:54:47;4.50;;;2.00;;
82372;SDS011;72000;42.828;23.382;2023-11-19T01:57:13;4.80;;;2.00;;
82372;SDS011;72000;42.828;23.382;2023-11-19T01:59:39;4.50;;;2.00;;
82372;SDS011;72000;42.828;23.382;2023-11-19T02:02:07;4.80;;;1.95;;
82372;SDS011;72000;42.828;23.382;2023-11-19T02:04:32;4.30;;;2.08;;
82372;SDS011;72000;42.828;23.382;2023-11-19T02:06:58;4.43;;;2.00;;
82372;SDS011;72000;42.828;23.382;2023-11-19T02:09:24;4.25;;;1.88;;
82372;SDS011;72000;42.828;23.382;2023-11-19T02:11:50;4.32;;;2.00;;
82372;SDS011;72000;42.828;23.382;2023-11-19T02:14:16;3.85;;;1.90;;
82372;SDS011;72000;42.828;23.382;2023-11-19T02:16:42;4.30;;;1.90;;
82372;SDS011;72000;42.828;23.382;2023-11-19T02:19:08;4.10;;;1.90;;
82372;SDS011;72000;42.828;23.382;2023-11-19T02:21:35;3.30;;;1.70;;
82372;SDS011;72000;42.828;23.382;2023-11-19T02:24:02;3.88;;;1.77;;
82372;SDS011;72000;42.828;23.382;2023-11-19T02:29:17;4.53;;;1.88;;
82372;SDS011;72000;42.828;23.382;2023-11-19T02:31:42;3.75;;;1.90;;
82372;SDS011;72000;42.828;23.382;2023-11-19T02:34:10;4.72;;;2.05;;
82372;SDS011;72000;42.828;23.382;2023-11-19T02:36:37;3.20;;;1.60;;
82372;SDS011;72000;42.828;23.382;2023-11-19T02:39:03;3.58;;;1.55;;
82372;SDS011;72000;42.828;23.382;2023-11-19T02:41:28;4.13;;;1.80;;
82372;SDS011;72000;42.828;23.382;2023-11-19T02:43:55;4.13;;;1.60;;
82372;SDS011;72000;42.828;23.382;2023-11-19T02:46:20;4.25;;;1.90;;
82372;SDS011;72000;42.828;23.382;2023-11-19T02:48:46;4.05;;;2.00;;
82372;SDS011;72000;42.828;23.382;2023-11-19T02:51:12;4.38;;;2.03;;
82372;SDS011;72000;42.828;23.382;2023-11-19T02:53:37;4.60;;;1.88;;
82372;SDS011;72000;42.828;23.382;2023-11-19T02:56:05;4.03;;;1.85;;
82372;SDS011;72000;42.828;23.382;2023-11-19T02:58:40;3.65;;;1.70;;
82372;SDS011;72000;42.828;23.382;2023-11-19T03:01:08;4.13;;;1.92;;
82372;SDS011;72000;42.828;23.382;2023-11-19T03:03:44;5.13;;;1.75;;
82372;SDS011;72000;42.828;23.382;2023-11-19T03:06:14;4.32;;;1.90;;
82372;SDS011;72000;42.828;23.382;2023-11-19T03:08:40;3.53;;;1.67;;
82372;SDS011;72000;42.828;23.382;2023-11-19T03:11:05;4.13;;;1.90;;
82372;SDS011;72000;42.828;23.382;2023-11-19T03:13:31;4.18;;;1.80;;
82372;SDS011;72000;42.828;23.382;2023-11-19T03:15:56;3.90;;;1.63;;
82372;SDS011;72000;42.828;23.382;2023-11-19T03:18:22;4.22;;;1.88;;
82372;SDS011;72000;42.828;23.382;2023-11-19T03:20:47;4.00;;;1.80;;
82372;SDS011;72000;42.828;23.382;2023-11-19T03:23:14;4.07;;;1.60;;
82372;SDS011;72000;42.828;23.382;2023-11-19T03:25:40;3.78;;;1.70;;
82372;SDS011;72000;42.828;23.382;2023-11-19T03:28:06;4.57;;;2.10;;
82372;SDS011;72000;42.828;23.382;2023-11-19T03:30:31;4.20;;;1.90;;
82372;SDS011;72000;42.828;23.382;2023-11-19T03:32:58;4.65;;;2.00;;
82372;SDS011;72000;42.828;23.382;2023-11-19T03:35:23;3.95;;;1.83;;
82372;SDS011;72000;42.828;23.382;2023-11-19T03:37:49;4.45;;;2.00;;
82372;SDS011;72000;42.828;23.382;2023-11-19T03:40:16;4.05;;;1.80;;
82372;SDS011;72000;42.828;23.382;2023-11-19T03:42:41;4.22;;;1.70;;
82372;SDS011;72000;42.828;23.382;2023-11-19T03:45:07;4.45;;;2.17;;
82372;SDS011;72000;42.828;23.382;2023-11-19T03:47:37;3.92;;;1.88;;
82372;SDS011;72000;42.828;23.382;2023-11-19T03:50:03;4.78;;;1.77;;
82372;SDS011;72000;42.828;23.382;2023-11-19T03:52:30;5.75;;;1.90;;
82372;SDS011;72000;42.828;23.382;2023-11-19T03:54:55;3.55;;;1.77;;
82372;SDS011;72000;42.828;23.382;2023-11-19T03:57:23;4.57;;;1.88;;
82372;SDS011;72000;42.828;23.382;2023-11-19T03:59:49;5.80;;;1.75;;
82372;SDS011;72000;42.828;23.382;2023-11-19T04:02:15;3.70;;;1.77;;
82372;SDS011;72000;42.828;23.382;2023-11-19T04:04:41;4.15;;;1.98;;
82372;SDS011;72000;42.828;23.382;2023-11-19T04:07:07;3.90;;;1.80;;
82372;SDS011;72000;42.828;23.382;2023-11-19T04:09:32;5.45;;;1.98;;
82372;SDS011;72000;42.828;23.382;2023-11-19T04:11:58;4.72;;;2.10;;
82372;SDS011;72000;42.828;23.382;2023-11-19T04:14:25;4.97;;;2.00;;
82372;SDS011;72000;42.828;23.382;2023-11-19T04:16:51;5.55;;;2.30;;
82372;SDS011;72000;42.828;23.382;2023-11-19T04:19:17;5.47;;;2.22;;
82372;SDS011;72000;42.828;23.382;2023-11-19T04:21:44;4.07;;;1.80;;
82372;SDS011;72000;42.828;23.382;2023-11-19T04:24:09;5.38;;;2.30;;
82372;SDS011;72000;42.828;23.382;2023-11-19T04:26:41;4.28;;;1.95;;
82372;SDS011;72000;42.828;23.382;2023-11-19T04:29:11;4.93;;;2.10;;
82372;SDS011;72000;42.828;23.382;2023-11-19T04:31:38;4.82;;;2.47;;
82372;SDS011;72000;42.828;23.382;2023-11-19T04:34:04;4.68;;;2.05;;
82372;SDS011;72000;42.828;23.382;2023-11-19T04:36:31;4.40;;;1.95;;
82372;SDS011;72000;42.828;23.382;2023-11-19T04:39:00;4.55;;;1.92;;
82372;SDS011;72000;42.828;23.382;2023-11-19T04:41:26;5.38;;;2.50;;
82372;SDS011;72000;42.828;23.382;2023-11-19T04:43:55;5.13;;;2.28;;
82372;SDS011;72000;42.828;23.382;2023-11-19T04:46:21;5.70;;;2.30;;
82372;SDS011;72000;42.828;23.382;2023-11-19T04:48:46;5.43;;;2.17;;
82372;SDS011;72000;42.828;23.382;2023-11-19T04:51:12;6.05;;;2.40;;
82372;SDS011;72000;42.828;23.382;2023-11-19T04:53:38;4.85;;;2.20;;
82372;SDS011;72000;42.828;23.382;2023-11-19T04:56:12;5.60;;;2.10;;
82372;SDS011;72000;42.828;23.382;2023-11-19T04:58:38;4.65;;;2.15;;
82372;SDS011;72000;42.828;23.382;2023-11-19T05:01:04;4.57;;;2.03;;
82372;SDS011;72000;42.828;23.382;2023-11-19T05:03:30;5.57;;;2.15;;
82372;SDS011;72000;42.828;23.382;2023-11-19T05:08:22;5.15;;;2.55;;
82372;SDS011;72000;42.828;23.382;2023-11-19T05:10:47;6.03;;;2.55;;
82372;SDS011;72000;42.828;23.382;2023-11-19T05:13:13;5.57;;;2.33;;
82372;SDS011;72000;42.828;23.382;2023-11-19T05:15:38;8.00;;;2.92;;
82372;SDS011;72000;42.828;23.382;2023-11-19T05:18:04;6.38;;;2.47;;
82372;SDS011;72000;42.828;23.382;2023-11-19T05:20:30;6.18;;;2.72;;
82372;SDS011;72000;42.828;23.382;2023-11-19T05:22:55;8.23;;;2.50;;
82372;SDS011;72000;42.828;23.382;2023-11-19T05:25:21;5.70;;;2.40;;
82372;SDS011;72000;42.828;23.382;2023-11-19T05:27:46;6.22;;;2.50;;
82372;SDS011;72000;42.828;23.382;2023-11-19T05:30:12;5.32;;;2.30;;
82372;SDS011;72000;42.828;23.382;2023-11-19T05:32:38;5.28;;;2.40;;
82372;SDS011;72000;42.828;23.382;2023-11-19T05:35:03;7.15;;;2.15;;
82372;SDS011;72000;42.828;23.382;2023-11-19T05:37:29;5.18;;;2.65;;
82372;SDS011;72000;42.828;23.382;2023-11-19T05:39:54;5.30;;;2.47;;
82372;SDS011;72000;42.828;23.382;2023-11-19T05:42:20;5.25;;;2.60;;
82372;SDS011;72000;42.828;23.382;2023-11-19T05:44:45;5.85;;;2.60;;
82372;SDS011;72000;42.828;23.382;2023-11-19T05:47:11;5.32;;;2.35;;
82372;SDS011;72000;42.828;23.382;2023-11-19T05:49:37;5.15;;;2.30;;
82372;SDS011;72000;42.828;23.382;2023-11-19T05:52:03;6.25;;;2.60;;
82372;SDS011;72000;42.828;23.382;2023-11-19T05:54:28;7.85;;;2.60;;
82372;SDS011;72000;42.828;23.382;2023-11-19T05:56:54;5.38;;;2.42;;
82372;SDS011;72000;42.828;23.382;2023-11-19T05:59:19;6.43;;;2.75;;
82372;SDS011;72000;42.828;23.382;2023-11-19T06:01:45;6.32;;;2.83;;
82372;SDS011;72000;42.828;23.382;2023-11-19T06:04:11;7.95;;;2.80;;
82372;SDS011;72000;42.828;23.382;2023-11-19T06:06:37;4.75;;;2.42;;
82372;SDS011;72000;42.828;23.382;2023-11-19T06:09:03;5.75;;;2.75;;
82372;SDS011;72000;42.828;23.382;2023-11-19T06:11:29;5.15;;;2.28;;
82372;SDS011;72000;42.828;23.382;2023-11-19T06:13:54;5.90;;;2.55;;
82372;SDS011;72000;42.828;23.382;2023-11-19T06:16:21;7.57;;;2.60;;
82372;SDS011;72000;42.828;23.382;2023-11-19T06:18:46;6.30;;;2.80;;
82372;SDS011;72000;42.828;23.382;2023-11-19T06:21:12;5.70;;;2.60;;
82372;SDS011;72000;42.828;23.382;2023-11-19T06:23:38;7.03;;;2.80;;
82372;SDS011;72000;42.828;23.382;2023-11-19T06:26:03;6.72;;;2.90;;
82372;SDS011;72000;42.828;23.382;2023-11-19T06:28:30;6.10;;;2.65;;
82372;SDS011;72000;42.828;23.382;2023-11-19T06:30:56;6.82;;;2.72;;
82372;SDS011;72000;42.828;23.382;2023-11-19T06:33:23;5.32;;;2.50;;
82372;SDS011;72000;42.828;23.382;2023-11-19T06:35:49;5.95;;;2.75;;
82372;SDS011;72000;42.828;23.382;2023-11-19T06:38:15;6.25;;;2.80;;
82372;SDS011;72000;42.828;23.382;2023-11-19T06:40:40;6.95;;;2.70;;
82372;SDS011;72000;42.828;23.382;2023-11-19T06:43:06;5.70;;;2.67;;
82372;SDS011;72000;42.828;23.382;2023-11-19T06:45:33;7.85;;;3.05;;
82372;SDS011;72000;42.828;23.382;2023-11-19T06:48:03;6.30;;;2.40;;
82372;SDS011;72000;42.828;23.382;2023-11-19T06:50:30;6.97;;;3.00;;
82372;SDS011;72000;42.828;23.382;2023-11-19T06:52:56;6.00;;;2.53;;
82372;SDS011;72000;42.828;23.382;2023-11-19T06:55:21;6.32;;;2.58;;
82372;SDS011;72000;42.828;23.382;2023-11-19T06:57:47;6.07;;;2.90;;
82372;SDS011;72000;42.828;23.382;2023-11-19T07:00:12;5.90;;;2.50;;
82372;SDS011;72000;42.828;23.382;2023-11-19T07:02:38;5.95;;;2.70;;
82372;SDS011;72000;42.828;23.382;2023-11-19T07:05:04;6.00;;;2.70;;
82372;SDS011;72000;42.828;23.382;2023-11-19T07:07:31;7.40;;;2.92;;
82372;SDS011;72000;42.828;23.382;2023-11-19T07:09:57;7.30;;;3.20;;
82372;SDS011;72000;42.828;23.382;2023-11-19T07:12:23;7.22;;;2.53;;
82372;SDS011;72000;42.828;23.382;2023-11-19T07:14:51;6.57;;;2.80;;
82372;SDS011;72000;42.828;23.382;2023-11-19T07:17:18;6.40;;;2.88;;
82372;SDS011;72000;42.828;23.382;2023-11-19T07:19:45;5.50;;;2.40;;
82372;SDS011;72000;42.828;23.382;2023-11-19T07:22:11;6.30;;;2.60;;
82372;SDS011;72000;42.828;23.382;2023-11-19T07:24:38;4.55;;;2.10;;
82372;SDS011;72000;42.828;23.382;2023-11-19T07:27:04;6.40;;;2.28;;
82372;SDS011;72000;42.828;23.382;2023-11-19T07:29:30;6.68;;;2.58;;
82372;SDS011;72000;42.828;23.382;2023-11-19T07:34:22;6.45;;;2.40;;
82372;SDS011;72000;42.828;23.382;2023-11-19T07:36:47;5.53;;;2.25;;
82372;SDS011;72000;42.828;23.382;2023-11-19T07:39:13;5.13;;;2.13;;
82372;SDS011;72000;42.828;23.382;2023-11-19T07:41:38;6.07;;;2.60;;
82372;SDS011;72000;42.828;23.382;2023-11-19T07:44:04;5.32;;;2.78;;
82372;SDS011;72000;42.828;23.382;2023-11-19T07:46:30;5.65;;;2.63;;
82372;SDS011;72000;42.828;23.382;2023-11-19T07:48:55;7.18;;;2.55;;
82372;SDS011;72000;42.828;23.382;2023-11-19T07:51:21;4.95;;;2.25;;
82372;SDS011;72000;42.828;23.382;2023-11-19T07:53:46;6.18;;;2.65;;
82372;SDS011;72000;42.828;23.382;2023-11-19T07:56:12;6.00;;;2.60;;
82372;SDS011;72000;42.828;23.382;2023-11-19T07:58:38;6.43;;;2.70;;
82372;SDS011;72000;42.828;23.382;2023-11-19T08:01:04;4.07;;;1.90;;
82372;SDS011;72000;42.828;23.382;2023-11-19T08:03:30;5.88;;;2.60;;
82372;SDS011;72000;42.828;23.382;2023-11-19T08:05:56;6.78;;;2.75;;
82372;SDS011;72000;42.828;23.382;2023-11-19T08:08:24;6.38;;;2.97;;
82372;SDS011;72000;42.828;23.382;2023-11-19T08:10:50;5.47;;;2.60;;
82372;SDS011;72000;42.828;23.382;2023-11-19T08:25:12;7.57;;;3.20;;
82372;SDS011;72000;42.828;23.382;2023-11-19T08:27:38;6.30;;;2.80;;
82372;SDS011;72000;42.828;23.382;2023-11-19T08:30:04;6.68;;;2.85;;
82372;SDS011;72000;42.828;23.382;2023-11-19T08:32:31;6.50;;;2.70;;
82372;SDS011;72000;42.828;23.382;2023-11-19T08:34:57;5.65;;;2.60;;
82372;SDS011;72000;42.828;23.382;2023-11-19T08:37:22;5.47;;;2.38;;
82372;SDS011;72000;42.828;23.382;2023-11-19T08:39:48;6.45;;;2.40;;
82372;SDS011;72000;42.828;23.382;2023-11-19T08:42:14;5.25;;;2.30;;
82372;SDS011;72000;42.828;23.382;2023-11-19T08:44:41;6.40;;;2.67;;
82372;SDS011;72000;42.828;23.382;2023-11-19T08:47:09;5.43;;;2.50;;
82372;SDS011;72000;42.828;23.382;2023-11-19T08:49:35;5.85;;;2.53;;
82372;SDS011;72000;42.828;23.382;2023-11-19T08:52:00;6.15;;;2.63;;
82372;SDS011;72000;42.828;23.382;2023-11-19T08:54:26;5.32;;;2.42;;
82372;SDS011;72000;42.828;23.382;2023-11-19T08:56:52;3.63;;;1.65;;
82372;SDS011;72000;42.828;23.382;2023-11-19T08:59:18;5.95;;;2.60;;
82372;SDS011;72000;42.828;23.382;2023-11-19T09:01:44;5.57;;;2.40;;
82372;SDS011;72000;42.828;23.382;2023-11-19T09:04:10;5.60;;;2.25;;
82372;SDS011;72000;42.828;23.382;2023-11-19T09:06:36;4.78;;;2.17;;
82372;SDS011;72000;42.828;23.382;2023-11-19T09:09:02;5.75;;;2.53;;
82372;SDS011;72000;42.828;23.382;2023-11-19T09:11:28;5.75;;;2.65;;
82372;SDS011;72000;42.828;23.382;2023-11-19T09:13:54;6.15;;;2.30;;
82372;SDS011;72000;42.828;23.382;2023-11-19T09:16:20;5.10;;;2.13;;
82372;SDS011;72000;42.828;23.382;2023-11-19T09:18:46;5.60;;;2.75;;
82372;SDS011;72000;42.828;23.382;2023-11-19T09:21:12;6.15;;;2.22;;
82372;SDS011;72000;42.828;23.382;2023-11-19T09:23:38;5.95;;;2.70;;
82372;SDS011;72000;42.828;23.382;2023-11-19T09:26:10;5.72;;;2.58;;
82372;SDS011;72000;42.828;23.382;2023-11-19T09:28:36;4.65;;;2.08;;
82372;SDS011;72000;42.828;23.382;2023-11-19T09:31:02;6.97;;;2.78;;
82372;SDS011;72000;42.828;23.382;2023-11-19T09:33:30;8.55;;;3.05;;
82372;SDS011;72000;42.828;23.382;2023-11-19T09:35:56;7.18;;;2.50;;
82372;SDS011;72000;42.828;23.382;2023-11-19T09:38:23;6.15;;;2.78;;
82372;SDS011;72000;42.828;23.382;2023-11-19T09:40:48;4.57;;;2.20;;
82372;SDS011;72000;42.828;23.382;2023-11-19T09:43:15;5.32;;;2.03;;
82372;SDS011;72000;42.828;23.382;2023-11-19T09:45:50;5.90;;;2.55;;
82372;SDS011;72000;42.828;23.382;2023-11-19T09:48:19;5.28;;;2.78;;
82372;SDS011;72000;42.828;23.382;2023-11-19T09:50:48;6.22;;;2.80;;
82372;SDS011;72000;42.828;23.382;2023-11-19T09:53:14;5.85;;;2.50;;
82372;SDS011;72000;42.828;23.382;2023-11-19T09:55:43;6.18;;;2.60;;
82372;SDS011;72000;42.828;23.382;2023-11-19T09:58:10;5.85;;;2.55;;
82372;SDS011;72000;42.828;23.382;2023-11-19T10:00:37;6.35;;;2.60;;
82372;SDS011;72000;42.828;23.382;2023-11-19T10:03:03;5.72;;;2.47;;
82372;SDS011;72000;42.828;23.382;2023-11-19T10:05:30;4.47;;;1.98;;
82372;SDS011;72000;42.828;23.382;2023-11-19T10:07:56;5.13;;;2.33;;
82372;SDS011;72000;42.828;23.382;2023-11-19T10:10:21;6.32;;;2.30;;
82372;SDS011;72000;42.828;23.382;2023-11-19T10:12:50;5.03;;;2.08;;
82372;SDS011;72000;42.828;23.382;2023-11-19T10:15:23;5.47;;;2.40;;
82372;SDS011;72000;42.828;23.382;2023-11-19T10:17:59;6.18;;;2.60;;
82372;SDS011;72000;42.828;23.382;2023-11-19T10:20:25;6.13;;;2.60;;
82372;SDS011;72000;42.828;23.382;2023-11-19T10:22:53;5.40;;;2.53;;
82372;SDS011;72000;42.828;23.382;2023-11-19T10:25:24;4.93;;;2.38;;
82372;SDS011;72000;42.828;23.382;2023-11-19T10:27:50;4.43;;;1.85;;
82372;SDS011;72000;42.828;23.382;2023-11-19T10:35:33;4.85;;;1.98;;
82372;SDS011;72000;42.828;23.382;2023-11-19T10:38:00;4.85;;;1.88;;
82372;SDS011;72000;42.828;23.382;2023-11-19T10:40:39;5.88;;;2.50;;
82372;SDS011;72000;42.828;23.382;2023-11-19T10:45:33;6.05;;;2.60;;
82372;SDS011;72000;42.828;23.382;2023-11-19T10:47:59;5.25;;;2.40;;
82372;SDS011;72000;42.828;23.382;2023-11-19T10:50:25;5.30;;;2.20;;
82372;SDS011;72000;42.828;23.382;2023-11-19T10:52:56;4.82;;;2.20;;
82372;SDS011;72000;42.828;23.382;2023-11-19T10:55:28;6.05;;;2.55;;
82372;SDS011;72000;42.828;23.382;2023-11-19T10:58:02;5.95;;;2.40;;
82372;SDS011;72000;42.828;23.382;2023-11-19T11:03:25;5.80;;;2.40;;
82372;SDS011;72000;42.828;23.382;2023-11-19T11:05:55;5.15;;;2.10;;
82372;SDS011;72000;42.828;23.382;2023-11-19T11:08:21;5.65;;;2.42;;
82372;SDS011;72000;42.828;23.382;2023-11-19T11:10:54;5.28;;;2.03;;
82372;SDS011;72000;42.828;23.382;2023-11-19T11:13:22;5.65;;;2.35;;
82372;SDS011;72000;42.828;23.382;2023-11-19T11:15:49;5.60;;;1.92;;
82372;SDS011;72000;42.828;23.382;2023-11-19T11:18:15;4.65;;;2.10;;
82372;SDS011;72000;42.828;23.382;2023-11-19T11:20:43;5.60;;;2.20;;
82372;SDS011;72000;42.828;23.382;2023-11-19T11:38:36;4.93;;;2.35;;
82372;SDS011;72000;42.828;23.382;2023-11-19T11:41:21;6.30;;;2.58;;
82372;SDS011;72000;42.828;23.382;2023-11-19T11:43:48;5.15;;;2.20;;
82372;SDS011;72000;42.828;23.382;2023-11-19T11:49:02;4.63;;;2.10;;
82372;SDS011;72000;42.828;23.382;2023-11-19T11:59:47;4.35;;;2.10;;
82372;SDS011;72000;42.828;23.382;2023-11-19T12:02:17;4.90;;;2.28;;
82372;SDS011;72000;42.828;23.382;2023-11-19T12:04:46;4.78;;;2.13;;
82372;SDS011;72000;42.828;23.382;2023-11-19T12:07:17;5.22;;;2.25;;
82372;SDS011;72000;42.828;23.382;2023-11-19T12:09:47;5.28;;;2.28;;
82372;SDS011;72000;42.828;23.382;2023-11-19T12:12:17;4.60;;;2.10;;
82372;SDS011;72000;42.828;23.382;2023-11-19T12:20:01;4.80;;;2.03;;
82372;SDS011;72000;42.828;23.382;2023-11-19T12:22:28;3.67;;;1.73;;
82372;SDS011;72000;42.828;23.382;2023-11-19T12:24:54;4.72;;;2.13;;
82372;SDS011;72000;42.828;23.382;2023-11-19T12:27:20;4.28;;;1.98;;
82372;SDS011;72000;42.828;23.382;2023-11-19T12:29:49;4.35;;;1.92;;
82372;SDS011;72000;42.828;23.382;2023-11-19T12:32:15;3.97;;;1.85;;
82372;SDS011;72000;42.828;23.382;2023-11-19T12:34:40;4.65;;;2.08;;
82372;SDS011;72000;42.828;23.382;2023-11-19T12:37:07;3.83;;;1.90;;
82372;SDS011;72000;42.828;23.382;2023-11-19T12:39:36;4.53;;;1.92;;
82372;SDS011;72000;42.828;23.382;2023-11-19T12:42:02;4.05;;;1.75;;
82372;SDS011;72000;42.828;23.382;2023-11-19T12:44:27;3.63;;;1.70;;
82372;SDS011;72000;42.828;23.382;2023-11-19T12:47:06;5.40;;;1.90;;
82372;SDS011;72000;42.828;23.382;2023-11-19T12:49:35;4.75;;;1.98;;
82372;SDS011;72000;42.828;23.382;2023-11-19T12:52:00;4.75;;;2.08;;
82372;SDS011;72000;42.828;23.382;2023-11-19T12:54:33;4.38;;;2.10;;
82372;SDS011;72000;42.828;23.382;2023-11-19T12:56:59;3.92;;;1.77;;
82372;SDS011;72000;42.828;23.382;2023-11-19T12:59:25;4.13;;;2.00;;
82372;SDS011;72000;42.828;23.382;2023-11-19T13:01:58;4.18;;;1.90;;
82372;SDS011;72000;42.828;23.382;2023-11-19T13:04:27;3.90;;;1.80;;
82372;SDS011;72000;42.828;23.382;2023-11-19T13:06:54;5.47;;;1.90;;
82372;SDS011;72000;42.828;23.382;2023-11-19T13:09:26;5.28;;;2.25;;
82372;SDS011;72000;42.828;23.382;2023-11-19T13:11:52;4.82;;;2.17;;
82372;SDS011;72000;42.828;23.382;2023-11-19T13:14:19;4.32;;;2.00;;
82372;SDS011;72000;42.828;23.382;2023-11-19T13:16:45;4.55;;;2.10;;
82372;SDS011;72000;42.828;23.382;2023-11-19T13:19:15;5.13;;;2.10;;
82372;SDS011;72000;42.828;23.382;2023-11-19T13:21:44;4.60;;;1.88;;
82372;SDS011;72000;42.828;23.382;2023-11-19T13:24:12;4.43;;;1.80;;
82372;SDS011;72000;42.828;23.382;2023-11-19T13:26:38;5.22;;;1.80;;
82372;SDS011;72000;42.828;23.382;2023-11-19T13:29:05;4.30;;;1.80;;
82372;SDS011;72000;42.828;23.382;2023-11-19T13:31:30;3.85;;;1.63;;
82372;SDS011;72000;42.828;23.382;2023-11-19T13:33:56;3.95;;;1.55;;
82372;SDS011;72000;42.828;23.382;2023-11-19T13:36:23;3.08;;;1.45;;
82372;SDS011;72000;42.828;23.382;2023-11-19T13:38:50;3.58;;;1.67;;
82372;SDS011;72000;42.828;23.382;2023-11-19T13:41:16;3.85;;;1.52;;
82372;SDS011;72000;42.828;23.382;2023-11-19T13:43:42;3.38;;;1.52;;
82372;SDS011;72000;42.828;23.382;2023-11-19T13:48:37;4.20;;;1.70;;
82372;SDS011;72000;42.828;23.382;2023-11-19T13:51:02;3.30;;;1.55;;
82372;SDS011;72000;42.828;23.382;2023-11-19T13:53:28;3.72;;;1.70;;
82372;SDS011;72000;42.828;23.382;2023-11-19T13:55:54;3.17;;;1.40;;
82372;SDS011;72000;42.828;23.382;2023-11-19T13:58:19;3.85;;;1.70;;
82372;SDS011;72000;42.828;23.382;2023-11-19T14:00:45;3.53;;;1.55;;
82372;SDS011;72000;42.828;23.382;2023-11-19T14:03:11;3.28;;;1.42;;
82372;SDS011;72000;42.828;23.382;2023-11-19T14:05:37;4.50;;;1.60;;
82372;SDS011;72000;42.828;23.382;2023-11-19T14:10:36;3.20;;;1.48;;
82372;SDS011;72000;42.828;23.382;2023-11-19T14:13:08;4.00;;;1.70;;
82372;SDS011;72000;42.828;23.382;2023-11-19T14:15:34;5.88;;;1.90;;
82372;SDS011;72000;42.828;23.382;2023-11-19T14:18:00;4.57;;;1.90;;
82372;SDS011;72000;42.828;23.382;2023-11-19T14:20:27;5.30;;;1.92;;
82372;SDS011;72000;42.828;23.382;2023-11-19T14:22:52;3.58;;;1.60;;
82372;SDS011;72000;42.828;23.382;2023-11-19T14:25:18;3.88;;;1.70;;
82372;SDS011;72000;42.828;23.382;2023-11-19T14:27:44;3.72;;;1.65;;
82372;SDS011;72000;42.828;23.382;2023-11-19T14:30:12;4.22;;;1.58;;
82372;SDS011;72000;42.828;23.382;2023-11-19T14:32:41;3.88;;;1.60;;
82372;SDS011;72000;42.828;23.382;2023-11-19T14:35:09;3.58;;;1.50;;
82372;SDS011;72000;42.828;23.382;2023-11-19T14:37:34;3.92;;;1.90;;
82372;SDS011;72000;42.828;23.382;2023-11-19T14:40:00;5.40;;;1.75;;
82372;SDS011;72000;42.828;23.382;2023-11-19T14:42:28;5.00;;;2.05;;
82372;SDS011;72000;42.828;23.382;2023-11-19T14:44:54;6.43;;;2.15;;
82372;SDS011;72000;42.828;23.382;2023-11-19T14:47:20;5.68;;;1.83;;
82372;SDS011;72000;42.828;23.382;2023-11-19T14:49:47;3.72;;;1.80;;
82372;SDS011;72000;42.828;23.382;2023-11-19T14:52:12;3.85;;;1.80;;
82372;SDS011;72000;42.828;23.382;2023-11-19T14:54:38;6.25;;;1.75;;
82372;SDS011;72000;42.828;23.382;2023-11-19T14:57:04;4.03;;;1.70;;
82372;SDS011;72000;42.828;23.382;2023-11-19T14:59:31;4.50;;;1.80;;
82372;SDS011;72000;42.828;23.382;2023-11-19T15:01:58;9.73;;;4.30;;
82372;SDS011;72000;42.828;23.382;2023-11-19T15:04:25;6.05;;;2.97;;
82372;SDS011;72000;42.828;23.382;2023-11-19T15:06:50;5.18;;;2.45;;
82372;SDS011;72000;42.828;23.382;2023-11-19T15:09:16;5.90;;;2.40;;
82372;SDS011;72000;42.828;23.382;2023-11-19T15:11:45;5.53;;;2.30;;
82372;SDS011;72000;42.828;23.382;2023-11-19T15:14:14;4.63;;;2.10;;
82372;SDS011;72000;42.828;23.382;2023-11-19T15:16:42;5.20;;;2.28;;
82372;SDS011;72000;42.828;23.382;2023-11-19T15:19:08;6.30;;;2.55;;
82372;SDS011;72000;42.828;23.382;2023-11-19T15:21:34;5.18;;;2.22;;
82372;SDS011;72000;42.828;23.382;2023-11-19T15:24:00;5.03;;;2.05;;
82372;SDS011;72000;42.828;23.382;2023-11-19T15:26:27;4.75;;;1.90;;
82372;SDS011;72000;42.828;23.382;2023-11-19T15:28:52;5.13;;;1.90;;
82372;SDS011;72000;42.828;23.382;2023-11-19T15:31:22;5.00;;;2.10;;
82372;SDS011;72000;42.828;23.382;2023-11-19T15:36:13;5.05;;;1.80;;
82372;SDS011;72000;42.828;23.382;2023-11-19T15:38:39;4.53;;;1.75;;
82372;SDS011;72000;42.828;23.382;2023-11-19T15:41:05;4.25;;;1.70;;
82372;SDS011;72000;42.828;23.382;2023-11-19T15:43:32;5.57;;;1.98;;
82372;SDS011;72000;42.828;23.382;2023-11-19T15:45:58;4.57;;;1.88;;